sensor_id;sensor_type;location;lat;lon;timestamp;P1;durP1;ratioP1;P2;durP2;ratioP2
61104;SDS011;46987;32.638;-115.438;2023-08-12T00:01:17;6.18;;;1.20;;
61104;SDS011;46987;32.638;-115.438;2023-08-12T00:03:49;6.32;;;1.23;;
61104;SDS011;46987;32.638;-115.438;2023-08-12T00:06:15;4.68;;;1.00;;
61104;SDS011;46987;32.638;-115.438;2023-08-12T00:08:42;3.20;;;0.75;;
61104;SDS011;46987;32.638;-115.438;2023-08-12T00:11:10;4.32;;;1.20;;
61104;SDS011;46987;32.638;-115.438;2023-08-12T00:13:36;5.72;;;1.10;;
61104;SDS011;46987;32.638;-115.438;2023-08-12T00:16:03;3.70;;;1.08;;
61104;SDS011;46987;32.638;-115.438;2023-08-12T00:18:30;7.30;;;1.55;;
61104;SDS011;46987;32.638;-115.438;2023-08-12T00:23:30;5.40;;;1.38;;
61104;SDS011;46987;32.638;-115.438;2023-08-12T00:25:58;7.75;;;1.33;;
61104;SDS011;46987;32.638;-115.438;2023-08-12T00:28:24;6.20;;;1.30;;
61104;SDS011;46987;32.638;-115.438;2023-08-12T00:30:51;5.30;;;1.17;;
61104;SDS011;46987;32.638;-115.438;2023-08-12T00:33:18;2.53;;;0.98;;
61104;SDS011;46987;32.638;-115.438;2023-08-12T00:35:45;4.47;;;1.48;;
61104;SDS011;46987;32.638;-115.438;2023-08-12T00:38:13;5.55;;;1.52;;
61104;SDS011;46987;32.638;-115.438;2023-08-12T00:40:42;5.43;;;2.13;;
61104;SDS011;46987;32.638;-115.438;2023-08-12T00:43:08;4.88;;;1.30;;
61104;SDS011;46987;32.638;-115.438;2023-08-12T00:45:35;3.13;;;1.25;;
61104;SDS011;46987;32.638;-115.438;2023-08-12T00:48:02;3.58;;;0.93;;
61104;SDS011;46987;32.638;-115.438;2023-08-12T00:50:29;3.13;;;1.23;;
61104;SDS011;46987;32.638;-115.438;2023-08-12T00:52:56;3.90;;;1.25;;
61104;SDS011;46987;32.638;-115.438;2023-08-12T00:55:24;4.38;;;1.33;;
61104;SDS011;46987;32.638;-115.438;2023-08-12T00:57:52;3.53;;;1.15;;
61104;SDS011;46987;32.638;-115.438;2023-08-12T01:00:19;3.28;;;1.20;;
61104;SDS011;46987;32.638;-115.438;2023-08-12T01:02:47;4.35;;;1.10;;
61104;SDS011;46987;32.638;-115.438;2023-08-12T01:05:15;6.63;;;1.08;;
61104;SDS011;46987;32.638;-115.438;2023-08-12T01:07:42;4.18;;;1.08;;
61104;SDS011;46987;32.638;-115.438;2023-08-12T01:10:11;4.68;;;1.13;;
61104;SDS011;46987;32.638;-115.438;2023-08-12T01:12:43;3.17;;;1.00;;
61104;SDS011;46987;32.638;-115.438;2023-08-12T01:15:13;5.47;;;1.10;;
61104;SDS011;46987;32.638;-115.438;2023-08-12T01:17:42;4.55;;;1.30;;
61104;SDS011;46987;32.638;-115.438;2023-08-12T01:20:11;6.07;;;1.30;;
61104;SDS011;46987;32.638;-115.438;2023-08-12T01:22:41;3.85;;;1.08;;
61104;SDS011;46987;32.638;-115.438;2023-08-12T01:25:12;6.43;;;1.20;;
61104;SDS011;46987;32.638;-115.438;2023-08-12T01:27:39;1.92;;;1.10;;
61104;SDS011;46987;32.638;-115.438;2023-08-12T01:30:09;6.43;;;1.23;;
61104;SDS011;46987;32.638;-115.438;2023-08-12T01:32:37;5.93;;;1.50;;
61104;SDS011;46987;32.638;-115.438;2023-08-12T01:35:09;4.35;;;1.13;;
61104;SDS011;46987;32.638;-115.438;2023-08-12T01:37:41;4.18;;;1.17;;
61104;SDS011;46987;32.638;-115.438;2023-08-12T01:40:08;6.28;;;1.55;;
61104;SDS011;46987;32.638;-115.438;2023-08-12T01:42:38;5.50;;;1.42;;
61104;SDS011;46987;32.638;-115.438;2023-08-12T01:45:05;6.55;;;1.83;;
61104;SDS011;46987;32.638;-115.438;2023-08-12T01:47:33;6.75;;;1.80;;
61104;SDS011;46987;32.638;-115.438;2023-08-12T01:50:00;5.38;;;1.85;;
61104;SDS011;46987;32.638;-115.438;2023-08-12T01:52:26;5.72;;;2.00;;
61104;SDS011;46987;32.638;-115.438;2023-08-12T01:54:54;4.13;;;1.73;;
61104;SDS011;46987;32.638;-115.438;2023-08-12T01:57:21;4.00;;;1.50;;
61104;SDS011;46987;32.638;-115.438;2023-08-12T01:59:50;4.68;;;1.60;;
61104;SDS011;46987;32.638;-115.438;2023-08-12T02:02:17;6.50;;;1.40;;
61104;SDS011;46987;32.638;-115.438;2023-08-12T02:04:44;5.18;;;1.75;;
61104;SDS011;46987;32.638;-115.438;2023-08-12T02:07:11;6.57;;;1.55;;
61104;SDS011;46987;32.638;-115.438;2023-08-12T02:09:44;6.57;;;1.90;;
61104;SDS011;46987;32.638;-115.438;2023-08-12T02:12:12;4.63;;;1.63;;
61104;SDS011;46987;32.638;-115.438;2023-08-12T02:14:38;5.20;;;2.22;;
61104;SDS011;46987;32.638;-115.438;2023-08-12T02:17:07;8.50;;;2.55;;
61104;SDS011;46987;32.638;-115.438;2023-08-12T02:19:35;4.32;;;1.90;;
61104;SDS011;46987;32.638;-115.438;2023-08-12T02:22:03;4.93;;;2.22;;
61104;SDS011;46987;32.638;-115.438;2023-08-12T02:24:30;7.95;;;2.40;;
61104;SDS011;46987;32.638;-115.438;2023-08-12T02:26:58;5.72;;;2.35;;
61104;SDS011;46987;32.638;-115.438;2023-08-12T02:29:24;5.45;;;2.15;;
61104;SDS011;46987;32.638;-115.438;2023-08-12T02:31:51;8.38;;;3.15;;
61104;SDS011;46987;32.638;-115.438;2023-08-12T02:34:21;6.72;;;2.60;;
61104;SDS011;46987;32.638;-115.438;2023-08-12T02:36:48;10.27;;;2.97;;
61104;SDS011;46987;32.638;-115.438;2023-08-12T02:39:15;10.45;;;2.72;;
61104;SDS011;46987;32.638;-115.438;2023-08-12T02:41:42;6.60;;;1.95;;
61104;SDS011;46987;32.638;-115.438;2023-08-12T02:44:09;6.35;;;2.50;;
61104;SDS011;46987;32.638;-115.438;2023-08-12T02:46:36;8.85;;;2.55;;
61104;SDS011;46987;32.638;-115.438;2023-08-12T02:49:03;10.05;;;2.92;;
61104;SDS011;46987;32.638;-115.438;2023-08-12T02:51:31;8.48;;;2.80;;
61104;SDS011;46987;32.638;-115.438;2023-08-12T02:53:58;8.48;;;2.00;;
61104;SDS011;46987;32.638;-115.438;2023-08-12T02:56:25;7.47;;;2.13;;
61104;SDS011;46987;32.638;-115.438;2023-08-12T02:58:51;8.70;;;2.25;;
61104;SDS011;46987;32.638;-115.438;2023-08-12T03:01:20;7.75;;;2.00;;
61104;SDS011;46987;32.638;-115.438;2023-08-12T03:03:47;8.85;;;2.40;;
61104;SDS011;46987;32.638;-115.438;2023-08-12T03:06:14;8.43;;;2.10;;
61104;SDS011;46987;32.638;-115.438;2023-08-12T03:08:43;7.38;;;2.28;;
61104;SDS011;46987;32.638;-115.438;2023-08-12T03:11:10;6.70;;;2.50;;
61104;SDS011;46987;32.638;-115.438;2023-08-12T03:13:36;7.07;;;2.50;;
61104;SDS011;46987;32.638;-115.438;2023-08-12T03:16:07;8.60;;;2.60;;
61104;SDS011;46987;32.638;-115.438;2023-08-12T03:18:38;7.00;;;2.80;;
61104;SDS011;46987;32.638;-115.438;2023-08-12T03:21:05;6.60;;;1.95;;
61104;SDS011;46987;32.638;-115.438;2023-08-12T03:23:32;6.18;;;2.20;;
61104;SDS011;46987;32.638;-115.438;2023-08-12T03:26:01;6.50;;;2.40;;
61104;SDS011;46987;32.638;-115.438;2023-08-12T03:28:28;5.50;;;1.77;;
61104;SDS011;46987;32.638;-115.438;2023-08-12T03:30:55;6.85;;;2.05;;
61104;SDS011;46987;32.638;-115.438;2023-08-12T03:33:24;10.90;;;2.53;;
61104;SDS011;46987;32.638;-115.438;2023-08-12T03:35:52;10.45;;;2.78;;
61104;SDS011;46987;32.638;-115.438;2023-08-12T03:38:19;7.68;;;2.85;;
61104;SDS011;46987;32.638;-115.438;2023-08-12T03:40:46;8.48;;;2.60;;
61104;SDS011;46987;32.638;-115.438;2023-08-12T03:43:17;9.60;;;3.10;;
61104;SDS011;46987;32.638;-115.438;2023-08-12T03:45:45;9.13;;;3.47;;
61104;SDS011;46987;32.638;-115.438;2023-08-12T03:48:14;8.60;;;3.40;;
61104;SDS011;46987;32.638;-115.438;2023-08-12T03:50:41;7.50;;;3.08;;
61104;SDS011;46987;32.638;-115.438;2023-08-12T03:53:08;9.75;;;3.40;;
61104;SDS011;46987;32.638;-115.438;2023-08-12T03:55:36;10.75;;;3.22;;
61104;SDS011;46987;32.638;-115.438;2023-08-12T03:58:04;7.45;;;3.00;;
61104;SDS011;46987;32.638;-115.438;2023-08-12T04:00:33;7.85;;;3.08;;
61104;SDS011;46987;32.638;-115.438;2023-08-12T04:03:02;9.88;;;3.00;;
61104;SDS011;46987;32.638;-115.438;2023-08-12T04:05:29;8.85;;;3.67;;
61104;SDS011;46987;32.638;-115.438;2023-08-12T04:07:56;8.77;;;2.50;;
61104;SDS011;46987;32.638;-115.438;2023-08-12T04:10:22;8.68;;;1.90;;
61104;SDS011;46987;32.638;-115.438;2023-08-12T04:12:49;6.90;;;2.13;;
61104;SDS011;46987;32.638;-115.438;2023-08-12T04:15:17;8.13;;;2.60;;
61104;SDS011;46987;32.638;-115.438;2023-08-12T04:17:50;6.10;;;2.72;;
61104;SDS011;46987;32.638;-115.438;2023-08-12T04:20:18;9.18;;;3.10;;
61104;SDS011;46987;32.638;-115.438;2023-08-12T04:22:44;8.77;;;3.22;;
61104;SDS011;46987;32.638;-115.438;2023-08-12T04:25:11;8.82;;;2.50;;
61104;SDS011;46987;32.638;-115.438;2023-08-12T04:27:38;9.35;;;3.28;;
61104;SDS011;46987;32.638;-115.438;2023-08-12T04:30:05;7.85;;;1.92;;
61104;SDS011;46987;32.638;-115.438;2023-08-12T04:32:33;10.55;;;1.75;;
61104;SDS011;46987;32.638;-115.438;2023-08-12T04:35:01;6.35;;;1.95;;
61104;SDS011;46987;32.638;-115.438;2023-08-12T04:37:29;6.28;;;1.67;;
61104;SDS011;46987;32.638;-115.438;2023-08-12T04:39:58;4.28;;;1.60;;
61104;SDS011;46987;32.638;-115.438;2023-08-12T04:42:26;7.50;;;2.05;;
61104;SDS011;46987;32.638;-115.438;2023-08-12T04:44:53;5.70;;;2.00;;
61104;SDS011;46987;32.638;-115.438;2023-08-12T04:47:20;5.57;;;1.70;;
61104;SDS011;46987;32.638;-115.438;2023-08-12T04:49:47;6.20;;;1.88;;
61104;SDS011;46987;32.638;-115.438;2023-08-12T04:52:15;5.43;;;1.88;;
61104;SDS011;46987;32.638;-115.438;2023-08-12T04:54:42;5.97;;;1.70;;
61104;SDS011;46987;32.638;-115.438;2023-08-12T04:57:09;7.07;;;1.83;;
61104;SDS011;46987;32.638;-115.438;2023-08-12T04:59:36;6.55;;;1.75;;
61104;SDS011;46987;32.638;-115.438;2023-08-12T05:02:03;6.45;;;1.60;;
61104;SDS011;46987;32.638;-115.438;2023-08-12T05:04:33;6.75;;;2.08;;
61104;SDS011;46987;32.638;-115.438;2023-08-12T05:07:01;7.43;;;1.77;;
61104;SDS011;46987;32.638;-115.438;2023-08-12T05:09:30;5.95;;;2.17;;
61104;SDS011;46987;32.638;-115.438;2023-08-12T05:11:57;8.05;;;2.00;;
61104;SDS011;46987;32.638;-115.438;2023-08-12T05:14:24;6.03;;;2.00;;
61104;SDS011;46987;32.638;-115.438;2023-08-12T05:16:51;5.22;;;1.73;;
61104;SDS011;46987;32.638;-115.438;2023-08-12T05:19:18;8.55;;;2.30;;
61104;SDS011;46987;32.638;-115.438;2023-08-12T05:21:48;5.85;;;1.85;;
61104;SDS011;46987;32.638;-115.438;2023-08-12T05:24:15;5.20;;;1.52;;
61104;SDS011;46987;32.638;-115.438;2023-08-12T05:26:44;8.30;;;1.95;;
61104;SDS011;46987;32.638;-115.438;2023-08-12T05:29:11;6.60;;;2.00;;
61104;SDS011;46987;32.638;-115.438;2023-08-12T05:31:37;8.07;;;2.08;;
61104;SDS011;46987;32.638;-115.438;2023-08-12T05:34:04;7.60;;;1.90;;
61104;SDS011;46987;32.638;-115.438;2023-08-12T05:36:31;7.68;;;1.80;;
61104;SDS011;46987;32.638;-115.438;2023-08-12T05:38:58;9.02;;;1.95;;
61104;SDS011;46987;32.638;-115.438;2023-08-12T05:41:25;6.95;;;1.90;;
61104;SDS011;46987;32.638;-115.438;2023-08-12T05:43:54;4.07;;;1.70;;
61104;SDS011;46987;32.638;-115.438;2023-08-12T05:46:21;4.80;;;1.88;;
61104;SDS011;46987;32.638;-115.438;2023-08-12T05:48:48;5.03;;;1.73;;
61104;SDS011;46987;32.638;-115.438;2023-08-12T05:51:15;4.55;;;1.92;;
61104;SDS011;46987;32.638;-115.438;2023-08-12T05:53:41;5.93;;;1.58;;
61104;SDS011;46987;32.638;-115.438;2023-08-12T05:56:11;5.53;;;1.50;;
61104;SDS011;46987;32.638;-115.438;2023-08-12T05:58:37;4.85;;;1.52;;
61104;SDS011;46987;32.638;-115.438;2023-08-12T06:01:06;4.35;;;1.85;;
61104;SDS011;46987;32.638;-115.438;2023-08-12T06:03:33;5.18;;;1.50;;
61104;SDS011;46987;32.638;-115.438;2023-08-12T06:05:59;4.93;;;1.50;;
61104;SDS011;46987;32.638;-115.438;2023-08-12T06:08:26;3.90;;;1.50;;
61104;SDS011;46987;32.638;-115.438;2023-08-12T06:10:53;6.88;;;1.90;;
61104;SDS011;46987;32.638;-115.438;2023-08-12T06:13:19;8.60;;;1.60;;
61104;SDS011;46987;32.638;-115.438;2023-08-12T06:15:47;6.05;;;1.67;;
61104;SDS011;46987;32.638;-115.438;2023-08-12T06:18:16;8.75;;;1.95;;
61104;SDS011;46987;32.638;-115.438;2023-08-12T06:20:43;5.07;;;1.50;;
61104;SDS011;46987;32.638;-115.438;2023-08-12T06:23:15;5.53;;;1.50;;
61104;SDS011;46987;32.638;-115.438;2023-08-12T06:25:42;3.92;;;1.33;;
61104;SDS011;46987;32.638;-115.438;2023-08-12T06:28:09;3.92;;;1.40;;
61104;SDS011;46987;32.638;-115.438;2023-08-12T06:30:37;3.47;;;1.42;;
61104;SDS011;46987;32.638;-115.438;2023-08-12T06:33:04;2.97;;;1.42;;
61104;SDS011;46987;32.638;-115.438;2023-08-12T06:35:32;3.58;;;1.25;;
61104;SDS011;46987;32.638;-115.438;2023-08-12T06:37:59;5.93;;;1.65;;
61104;SDS011;46987;32.638;-115.438;2023-08-12T06:40:29;4.82;;;1.20;;
61104;SDS011;46987;32.638;-115.438;2023-08-12T06:42:57;3.47;;;1.20;;
61104;SDS011;46987;32.638;-115.438;2023-08-12T06:45:24;4.50;;;1.20;;
61104;SDS011;46987;32.638;-115.438;2023-08-12T06:47:53;5.60;;;1.30;;
61104;SDS011;46987;32.638;-115.438;2023-08-12T06:50:20;3.45;;;1.25;;
61104;SDS011;46987;32.638;-115.438;2023-08-12T06:52:52;3.05;;;1.20;;
61104;SDS011;46987;32.638;-115.438;2023-08-12T06:55:18;2.35;;;1.02;;
61104;SDS011;46987;32.638;-115.438;2023-08-12T06:57:45;4.07;;;1.50;;
61104;SDS011;46987;32.638;-115.438;2023-08-12T07:00:12;6.38;;;1.30;;
61104;SDS011;46987;32.638;-115.438;2023-08-12T07:02:39;6.40;;;1.40;;
61104;SDS011;46987;32.638;-115.438;2023-08-12T07:05:08;3.78;;;1.25;;
61104;SDS011;46987;32.638;-115.438;2023-08-12T07:07:35;4.18;;;1.33;;
61104;SDS011;46987;32.638;-115.438;2023-08-12T07:10:04;3.70;;;1.30;;
61104;SDS011;46987;32.638;-115.438;2023-08-12T07:12:34;3.65;;;1.20;;
61104;SDS011;46987;32.638;-115.438;2023-08-12T07:15:01;5.40;;;1.55;;
61104;SDS011;46987;32.638;-115.438;2023-08-12T07:17:28;4.22;;;1.38;;
61104;SDS011;46987;32.638;-115.438;2023-08-12T07:19:55;5.88;;;1.60;;
61104;SDS011;46987;32.638;-115.438;2023-08-12T07:22:22;3.30;;;0.95;;
61104;SDS011;46987;32.638;-115.438;2023-08-12T07:24:48;4.18;;;1.02;;
61104;SDS011;46987;32.638;-115.438;2023-08-12T07:27:18;2.28;;;1.10;;
61104;SDS011;46987;32.638;-115.438;2023-08-12T07:29:45;4.47;;;1.30;;
61104;SDS011;46987;32.638;-115.438;2023-08-12T07:32:12;5.05;;;1.40;;
61104;SDS011;46987;32.638;-115.438;2023-08-12T07:34:39;5.05;;;1.60;;
61104;SDS011;46987;32.638;-115.438;2023-08-12T07:37:06;9.40;;;1.95;;
61104;SDS011;46987;32.638;-115.438;2023-08-12T07:39:33;7.30;;;1.60;;
61104;SDS011;46987;32.638;-115.438;2023-08-12T07:41:59;5.63;;;1.45;;
61104;SDS011;46987;32.638;-115.438;2023-08-12T07:44:28;6.47;;;1.50;;
61104;SDS011;46987;32.638;-115.438;2023-08-12T07:46:55;5.05;;;1.35;;
61104;SDS011;46987;32.638;-115.438;2023-08-12T07:49:21;3.53;;;1.15;;
61104;SDS011;46987;32.638;-115.438;2023-08-12T07:51:48;4.93;;;1.52;;
61104;SDS011;46987;32.638;-115.438;2023-08-12T07:54:15;4.38;;;1.40;;
61104;SDS011;46987;32.638;-115.438;2023-08-12T07:56:42;6.78;;;1.33;;
61104;SDS011;46987;32.638;-115.438;2023-08-12T07:59:09;3.17;;;1.40;;
61104;SDS011;46987;32.638;-115.438;2023-08-12T08:01:38;6.25;;;1.58;;
61104;SDS011;46987;32.638;-115.438;2023-08-12T08:04:05;6.30;;;1.55;;
61104;SDS011;46987;32.638;-115.438;2023-08-12T08:06:32;4.30;;;1.38;;
61104;SDS011;46987;32.638;-115.438;2023-08-12T08:08:59;5.57;;;1.40;;
61104;SDS011;46987;32.638;-115.438;2023-08-12T08:11:29;7.65;;;1.48;;
61104;SDS011;46987;32.638;-115.438;2023-08-12T08:13:57;12.18;;;2.08;;
61104;SDS011;46987;32.638;-115.438;2023-08-12T08:16:24;6.43;;;1.63;;
61104;SDS011;46987;32.638;-115.438;2023-08-12T08:18:52;6.60;;;1.98;;
61104;SDS011;46987;32.638;-115.438;2023-08-12T08:21:19;6.60;;;1.40;;
61104;SDS011;46987;32.638;-115.438;2023-08-12T08:23:46;4.63;;;1.50;;
61104;SDS011;46987;32.638;-115.438;2023-08-12T08:26:13;5.80;;;1.60;;
61104;SDS011;46987;32.638;-115.438;2023-08-12T08:28:41;6.50;;;1.40;;
61104;SDS011;46987;32.638;-115.438;2023-08-12T08:31:09;6.25;;;1.58;;
61104;SDS011;46987;32.638;-115.438;2023-08-12T08:33:35;5.72;;;1.80;;
61104;SDS011;46987;32.638;-115.438;2023-08-12T08:36:04;4.53;;;1.42;;
61104;SDS011;46987;32.638;-115.438;2023-08-12T08:38:31;4.05;;;1.30;;
61104;SDS011;46987;32.638;-115.438;2023-08-12T08:40:58;5.85;;;1.70;;
61104;SDS011;46987;32.638;-115.438;2023-08-12T08:43:24;8.07;;;1.73;;
61104;SDS011;46987;32.638;-115.438;2023-08-12T08:45:53;4.32;;;1.85;;
61104;SDS011;46987;32.638;-115.438;2023-08-12T08:48:20;5.50;;;1.55;;
61104;SDS011;46987;32.638;-115.438;2023-08-12T08:50:47;8.73;;;1.92;;
61104;SDS011;46987;32.638;-115.438;2023-08-12T08:53:16;5.53;;;1.40;;
61104;SDS011;46987;32.638;-115.438;2023-08-12T08:55:44;5.97;;;1.67;;
61104;SDS011;46987;32.638;-115.438;2023-08-12T08:58:11;3.45;;;1.23;;
61104;SDS011;46987;32.638;-115.438;2023-08-12T09:00:38;8.63;;;1.58;;
61104;SDS011;46987;32.638;-115.438;2023-08-12T09:03:05;4.78;;;1.40;;
61104;SDS011;46987;32.638;-115.438;2023-08-12T09:05:32;7.07;;;1.55;;
61104;SDS011;46987;32.638;-115.438;2023-08-12T09:08:00;3.72;;;1.40;;
61104;SDS011;46987;32.638;-115.438;2023-08-12T09:10:30;4.80;;;1.50;;
61104;SDS011;46987;32.638;-115.438;2023-08-12T09:12:57;9.48;;;2.10;;
61104;SDS011;46987;32.638;-115.438;2023-08-12T09:15:25;7.75;;;1.65;;
61104;SDS011;46987;32.638;-115.438;2023-08-12T09:17:51;4.55;;;1.85;;
61104;SDS011;46987;32.638;-115.438;2023-08-12T09:20:18;5.72;;;2.25;;
61104;SDS011;46987;32.638;-115.438;2023-08-12T09:22:46;7.82;;;1.98;;
61104;SDS011;46987;32.638;-115.438;2023-08-12T09:25:21;8.60;;;1.88;;
61104;SDS011;46987;32.638;-115.438;2023-08-12T09:27:50;5.45;;;1.73;;
61104;SDS011;46987;32.638;-115.438;2023-08-12T09:30:21;8.60;;;1.63;;
61104;SDS011;46987;32.638;-115.438;2023-08-12T09:32:57;3.85;;;1.38;;
61104;SDS011;46987;32.638;-115.438;2023-08-12T09:35:25;7.13;;;1.70;;
61104;SDS011;46987;32.638;-115.438;2023-08-12T09:37:58;8.32;;;1.75;;
61104;SDS011;46987;32.638;-115.438;2023-08-12T09:40:25;5.20;;;1.35;;
61104;SDS011;46987;32.638;-115.438;2023-08-12T09:42:53;6.25;;;1.67;;
61104;SDS011;46987;32.638;-115.438;2023-08-12T09:45:23;4.78;;;1.63;;
61104;SDS011;46987;32.638;-115.438;2023-08-12T09:47:50;8.02;;;2.00;;
61104;SDS011;46987;32.638;-115.438;2023-08-12T09:50:17;4.38;;;1.52;;
61104;SDS011;46987;32.638;-115.438;2023-08-12T09:52:44;6.28;;;1.80;;
61104;SDS011;46987;32.638;-115.438;2023-08-12T09:55:11;7.53;;;1.85;;
61104;SDS011;46987;32.638;-115.438;2023-08-12T09:57:41;5.90;;;2.05;;
61104;SDS011;46987;32.638;-115.438;2023-08-12T10:00:12;4.88;;;1.30;;
61104;SDS011;46987;32.638;-115.438;2023-08-12T10:02:43;4.90;;;1.77;;
61104;SDS011;46987;32.638;-115.438;2023-08-12T10:05:10;6.72;;;1.58;;
61104;SDS011;46987;32.638;-115.438;2023-08-12T10:07:38;5.80;;;1.70;;
61104;SDS011;46987;32.638;-115.438;2023-08-12T10:10:08;5.65;;;1.40;;
61104;SDS011;46987;32.638;-115.438;2023-08-12T10:12:35;5.95;;;1.88;;
61104;SDS011;46987;32.638;-115.438;2023-08-12T10:15:02;3.30;;;1.48;;
61104;SDS011;46987;32.638;-115.438;2023-08-12T10:17:31;6.30;;;1.48;;
61104;SDS011;46987;32.638;-115.438;2023-08-12T10:19:58;4.78;;;1.45;;
61104;SDS011;46987;32.638;-115.438;2023-08-12T10:22:29;7.45;;;1.60;;
61104;SDS011;46987;32.638;-115.438;2023-08-12T10:24:56;7.32;;;1.80;;
61104;SDS011;46987;32.638;-115.438;2023-08-12T10:27:25;6.65;;;1.80;;
61104;SDS011;46987;32.638;-115.438;2023-08-12T10:29:52;4.55;;;1.85;;
61104;SDS011;46987;32.638;-115.438;2023-08-12T10:32:19;6.03;;;1.40;;
61104;SDS011;46987;32.638;-115.438;2023-08-12T10:34:48;4.82;;;1.67;;
61104;SDS011;46987;32.638;-115.438;2023-08-12T10:37:20;5.97;;;1.40;;
61104;SDS011;46987;32.638;-115.438;2023-08-12T10:39:46;7.13;;;1.60;;
61104;SDS011;46987;32.638;-115.438;2023-08-12T10:42:13;3.92;;;1.58;;
61104;SDS011;46987;32.638;-115.438;2023-08-12T10:44:40;4.95;;;1.50;;
61104;SDS011;46987;32.638;-115.438;2023-08-12T10:47:16;6.78;;;1.45;;
61104;SDS011;46987;32.638;-115.438;2023-08-12T10:49:43;3.90;;;1.40;;
61104;SDS011;46987;32.638;-115.438;2023-08-12T10:52:21;5.18;;;1.40;;
61104;SDS011;46987;32.638;-115.438;2023-08-12T10:54:52;5.55;;;1.90;;
61104;SDS011;46987;32.638;-115.438;2023-08-12T10:57:19;6.05;;;1.60;;
61104;SDS011;46987;32.638;-115.438;2023-08-12T11:00:01;4.80;;;1.52;;
61104;SDS011;46987;32.638;-115.438;2023-08-12T11:02:30;5.72;;;1.83;;
61104;SDS011;46987;32.638;-115.438;2023-08-12T11:05:00;7.30;;;1.70;;
61104;SDS011;46987;32.638;-115.438;2023-08-12T11:07:37;6.68;;;1.90;;
61104;SDS011;46987;32.638;-115.438;2023-08-12T11:10:05;4.30;;;1.80;;
61104;SDS011;46987;32.638;-115.438;2023-08-12T11:12:33;5.07;;;1.70;;
61104;SDS011;46987;32.638;-115.438;2023-08-12T11:15:00;5.53;;;1.60;;
61104;SDS011;46987;32.638;-115.438;2023-08-12T11:17:32;6.00;;;2.05;;
61104;SDS011;46987;32.638;-115.438;2023-08-12T11:19:59;6.00;;;1.92;;
61104;SDS011;46987;32.638;-115.438;2023-08-12T11:22:26;5.63;;;1.67;;
61104;SDS011;46987;32.638;-115.438;2023-08-12T11:24:55;5.63;;;1.65;;
61104;SDS011;46987;32.638;-115.438;2023-08-12T11:27:22;6.97;;;1.77;;
61104;SDS011;46987;32.638;-115.438;2023-08-12T11:29:49;6.40;;;2.03;;
61104;SDS011;46987;32.638;-115.438;2023-08-12T11:32:17;5.53;;;1.60;;
61104;SDS011;46987;32.638;-115.438;2023-08-12T11:34:43;5.45;;;1.60;;
61104;SDS011;46987;32.638;-115.438;2023-08-12T11:37:10;6.10;;;1.63;;
61104;SDS011;46987;32.638;-115.438;2023-08-12T11:39:37;4.20;;;1.70;;
61104;SDS011;46987;32.638;-115.438;2023-08-12T11:42:06;4.70;;;1.73;;
61104;SDS011;46987;32.638;-115.438;2023-08-12T11:44:33;5.13;;;1.70;;
61104;SDS011;46987;32.638;-115.438;2023-08-12T11:47:00;6.47;;;1.63;;
61104;SDS011;46987;32.638;-115.438;2023-08-12T11:49:27;6.32;;;1.98;;
61104;SDS011;46987;32.638;-115.438;2023-08-12T11:51:53;7.97;;;2.15;;
61104;SDS011;46987;32.638;-115.438;2023-08-12T11:54:20;5.20;;;2.00;;
61104;SDS011;46987;32.638;-115.438;2023-08-12T11:56:47;8.52;;;2.17;;
61104;SDS011;46987;32.638;-115.438;2023-08-12T11:59:16;6.85;;;2.17;;
61104;SDS011;46987;32.638;-115.438;2023-08-12T12:01:46;7.57;;;1.90;;
61104;SDS011;46987;32.638;-115.438;2023-08-12T12:04:15;9.02;;;1.80;;
61104;SDS011;46987;32.638;-115.438;2023-08-12T12:06:42;7.95;;;1.70;;
61104;SDS011;46987;32.638;-115.438;2023-08-12T12:09:08;6.95;;;1.40;;
61104;SDS011;46987;32.638;-115.438;2023-08-12T12:11:36;7.82;;;1.65;;
61104;SDS011;46987;32.638;-115.438;2023-08-12T12:14:03;5.13;;;1.88;;
61104;SDS011;46987;32.638;-115.438;2023-08-12T12:16:41;8.10;;;2.20;;
61104;SDS011;46987;32.638;-115.438;2023-08-12T12:19:09;8.52;;;1.80;;
61104;SDS011;46987;32.638;-115.438;2023-08-12T12:21:39;6.15;;;1.83;;
61104;SDS011;46987;32.638;-115.438;2023-08-12T12:24:07;5.28;;;1.73;;
61104;SDS011;46987;32.638;-115.438;2023-08-12T12:26:33;6.68;;;1.80;;
61104;SDS011;46987;32.638;-115.438;2023-08-12T12:29:00;6.38;;;1.65;;
61104;SDS011;46987;32.638;-115.438;2023-08-12T12:31:27;7.80;;;1.63;;
61104;SDS011;46987;32.638;-115.438;2023-08-12T12:33:55;7.95;;;2.03;;
61104;SDS011;46987;32.638;-115.438;2023-08-12T12:36:25;5.57;;;1.67;;
61104;SDS011;46987;32.638;-115.438;2023-08-12T12:38:52;6.50;;;1.60;;
61104;SDS011;46987;32.638;-115.438;2023-08-12T12:41:19;8.90;;;1.75;;
61104;SDS011;46987;32.638;-115.438;2023-08-12T12:43:46;7.60;;;1.92;;
61104;SDS011;46987;32.638;-115.438;2023-08-12T12:46:12;8.13;;;1.90;;
61104;SDS011;46987;32.638;-115.438;2023-08-12T12:48:39;4.38;;;1.52;;
61104;SDS011;46987;32.638;-115.438;2023-08-12T12:51:09;7.55;;;1.80;;
61104;SDS011;46987;32.638;-115.438;2023-08-12T12:53:35;6.47;;;1.77;;
61104;SDS011;46987;32.638;-115.438;2023-08-12T12:56:02;8.15;;;2.35;;
61104;SDS011;46987;32.638;-115.438;2023-08-12T12:58:32;10.77;;;3.45;;
61104;SDS011;46987;32.638;-115.438;2023-08-12T13:00:59;11.75;;;3.13;;
61104;SDS011;46987;32.638;-115.438;2023-08-12T13:03:26;14.57;;;4.00;;
61104;SDS011;46987;32.638;-115.438;2023-08-12T13:05:53;15.98;;;3.85;;
61104;SDS011;46987;32.638;-115.438;2023-08-12T13:08:22;22.63;;;4.82;;
61104;SDS011;46987;32.638;-115.438;2023-08-12T13:10:49;16.80;;;3.42;;
61104;SDS011;46987;32.638;-115.438;2023-08-12T13:13:16;18.13;;;3.90;;
61104;SDS011;46987;32.638;-115.438;2023-08-12T13:15:42;11.40;;;2.55;;
61104;SDS011;46987;32.638;-115.438;2023-08-12T13:18:09;11.10;;;2.92;;
61104;SDS011;46987;32.638;-115.438;2023-08-12T13:20:36;9.32;;;2.97;;
61104;SDS011;46987;32.638;-115.438;2023-08-12T13:23:04;8.18;;;2.60;;
61104;SDS011;46987;32.638;-115.438;2023-08-12T13:25:32;11.02;;;2.33;;
61104;SDS011;46987;32.638;-115.438;2023-08-12T13:28:00;7.22;;;2.25;;
61104;SDS011;46987;32.638;-115.438;2023-08-12T13:30:27;7.15;;;2.10;;
61104;SDS011;46987;32.638;-115.438;2023-08-12T13:32:53;12.05;;;3.38;;
61104;SDS011;46987;32.638;-115.438;2023-08-12T13:35:20;8.00;;;2.55;;
61104;SDS011;46987;32.638;-115.438;2023-08-12T13:37:48;6.07;;;1.80;;
61104;SDS011;46987;32.638;-115.438;2023-08-12T13:40:15;7.22;;;1.80;;
61104;SDS011;46987;32.638;-115.438;2023-08-12T13:42:43;9.20;;;2.17;;
61104;SDS011;46987;32.638;-115.438;2023-08-12T13:45:12;9.25;;;2.05;;
61104;SDS011;46987;32.638;-115.438;2023-08-12T13:47:39;7.88;;;1.88;;
61104;SDS011;46987;32.638;-115.438;2023-08-12T13:50:06;9.10;;;2.50;;
61104;SDS011;46987;32.638;-115.438;2023-08-12T13:52:33;9.85;;;2.20;;
61104;SDS011;46987;32.638;-115.438;2023-08-12T13:55:00;11.02;;;2.50;;
61104;SDS011;46987;32.638;-115.438;2023-08-12T13:57:26;13.85;;;2.95;;
61104;SDS011;46987;32.638;-115.438;2023-08-12T13:59:55;16.45;;;2.75;;
61104;SDS011;46987;32.638;-115.438;2023-08-12T14:02:22;15.65;;;2.65;;
61104;SDS011;46987;32.638;-115.438;2023-08-12T14:04:49;14.70;;;2.90;;
61104;SDS011;46987;32.638;-115.438;2023-08-12T14:07:15;10.23;;;2.20;;
61104;SDS011;46987;32.638;-115.438;2023-08-12T14:09:46;8.30;;;2.38;;
61104;SDS011;46987;32.638;-115.438;2023-08-12T14:12:13;11.10;;;2.03;;
61104;SDS011;46987;32.638;-115.438;2023-08-12T14:14:40;8.40;;;1.92;;